Time;durP1;ratioP1;P1;durP2;ratioP2;P2;SDS_P1;SDS_P2;PMS_P1;PMS_P2;Temp;Humidity;BMP_temperature;BMP_pressure;BME280_temperature;BME280_humidity;BME280_pressure;Samples;Min_cycle;Max_cycle;Signal;HPM_P1;HPM_P2
2022/05/22 00:01:55;;;;;;;4.03;1.80;;;13.50;99.90;;;;;;5059023;28;20193;-66
2022/05/22 00:04:22;;;;;;;1.60;1.50;;;13.50;99.90;;;;;;5063593;28;20569;-66
2022/05/22 00:06:48;;;;;;;3.70;2.05;;;13.50;99.90;;;;;;5055187;28;20303;-67
2022/05/22 00:09:13;;;;;;;2.60;1.80;;;13.50;99.90;;;;;;5062481;28;20256;-66
2022/05/22 00:11:39;;;;;;;2.28;2.00;;;13.40;99.90;;;;;;5065646;28;20216;-67
2022/05/22 00:14:05;;;;;;;3.22;2.10;;;13.40;99.90;;;;;;5060307;28;20215;-67
2022/05/22 00:16:36;;;;;;;5.97;2.85;;;13.40;99.90;;;;;;5057968;28;20248;-67
2022/05/22 00:19:12;;;;;;;3.13;2.80;;;13.30;99.90;;;;;;5058742;28;20742;-66
2022/05/22 00:21:39;;;;;;;3.55;3.25;;;13.30;99.90;;;;;;5063098;28;20196;-67
2022/05/22 00:24:06;;;;;;;4.10;3.80;;;13.20;99.90;;;;;;5057035;28;20183;-67
2022/05/22 00:26:32;;;;;;;6.00;3.03;;;13.20;99.90;;;;;;5064390;28;20174;-67
2022/05/22 00:28:57;;;;;;;4.68;2.40;;;13.10;99.90;;;;;;5056773;28;20624;-66
2022/05/22 00:31:23;;;;;;;2.65;2.13;;;13.10;99.90;;;;;;5071741;28;20189;-66
2022/05/22 00:33:48;;;;;;;4.50;2.80;;;13.10;99.90;;;;;;5064020;28;20656;-67
2022/05/22 00:36:14;;;;;;;3.30;3.00;;;13.10;99.90;;;;;;5071243;28;20233;-66
2022/05/22 00:38:40;;;;;;;4.72;3.38;;;13.00;99.90;;;;;;5053758;28;20184;-67
2022/05/22 00:41:09;;;;;;;2.70;2.50;;;13.10;99.90;;;;;;5071981;28;20216;-67
2022/05/22 00:43:41;;;;;;;2.78;2.28;;;13.00;99.90;;;;;;5053661;28;20174;-66
2022/05/22 00:46:11;;;;;;;2.47;2.28;;;13.00;99.90;;;;;;5062905;28;20192;-66
2022/05/22 00:48:43;;;;;;;4.05;2.38;;;13.00;99.90;;;;;;5060026;28;20185;-67
2022/05/22 00:51:26;;;;;;;2.97;2.58;;;13.00;99.90;;;;;;5053399;28;20162;-66
2022/05/22 00:53:58;;;;;;;3.30;1.83;;;13.00;99.90;;;;;;5056637;28;20534;-66
2022/05/22 00:56:33;;;;;;;3.28;2.35;;;12.90;99.90;;;;;;5066108;28;20762;-67
2022/05/22 00:58:59;;;;;;;3.10;1.98;;;12.90;99.90;;;;;;5061774;28;20180;-66
2022/05/22 01:01:24;;;;;;;2.25;2.05;;;12.80;99.90;;;;;;5052810;28;20290;-67
2022/05/22 01:03:50;;;;;;;2.50;2.03;;;12.80;99.90;;;;;;5058860;28;20640;-67
2022/05/22 01:06:20;;;;;;;2.38;2.13;;;12.80;99.90;;;;;;5058326;28;20193;-67
2022/05/22 01:08:47;;;;;;;2.30;2.10;;;12.80;99.90;;;;;;5066444;28;20189;-67
2022/05/22 01:11:28;;;;;;;2.35;2.15;;;12.80;99.90;;;;;;5052870;28;20178;-68
2022/05/22 01:13:58;;;;;;;3.08;1.70;;;12.80;99.90;;;;;;5068331;28;20539;-67
2022/05/22 01:16:25;;;;;;;2.45;2.00;;;12.70;99.90;;;;;;5058731;28;20185;-67
2022/05/22 01:18:53;;;;;;;2.05;1.80;;;12.70;99.90;;;;;;5065132;28;20195;-68
2022/05/22 01:21:23;;;;;;;2.05;1.80;;;12.70;99.90;;;;;;5052979;28;20247;-68
2022/05/22 01:23:50;;;;;;;2.17;1.83;;;12.70;99.90;;;;;;5056110;28;20235;-68
2022/05/22 01:26:16;;;;;;;1.83;1.60;;;12.70;99.90;;;;;;5063171;28;20726;-67
2022/05/22 01:28:42;;;;;;;3.58;1.73;;;12.70;99.90;;;;;;5064322;28;20203;-66
2022/05/22 01:31:08;;;;;;;5.43;2.00;;;12.70;99.90;;;;;;5067298;28;20637;-67
2022/05/22 01:33:35;;;;;;;3.90;1.90;;;12.60;99.90;;;;;;5061803;28;20269;-67
2022/05/22 01:36:02;;;;;;;2.00;1.55;;;12.60;99.90;;;;;;5063480;28;20180;-67
2022/05/22 01:38:27;;;;;;;1.83;1.70;;;12.50;99.90;;;;;;5060882;28;20193;-67
2022/05/22 01:40:53;;;;;;;1.80;1.70;;;12.50;99.90;;;;;;5057955;28;20221;-68
2022/05/22 01:43:19;;;;;;;1.98;1.50;;;12.50;99.90;;;;;;5062521;28;20182;-67
2022/05/22 01:45:45;;;;;;;3.30;1.85;;;12.40;99.90;;;;;;5060823;28;21047;-66
2022/05/22 01:48:11;;;;;;;2.30;1.58;;;12.40;99.90;;;;;;5058184;28;20180;-67
2022/05/22 01:50:38;;;;;;;2.17;1.83;;;12.50;99.90;;;;;;5059219;28;20230;-67
2022/05/22 01:53:04;;;;;;;3.42;1.70;;;12.40;99.90;;;;;;5053125;28;20185;-67
2022/05/22 01:55:30;;;;;;;1.80;1.70;;;12.40;99.90;;;;;;5064095;28;20184;-67
2022/05/22 01:57:56;;;;;;;1.90;1.80;;;12.40;99.90;;;;;;5069065;28;20231;-66
2022/05/22 02:00:24;;;;;;;2.05;1.52;;;12.40;99.90;;;;;;5072360;28;20235;-67
2022/05/22 02:02:50;;;;;;;1.85;1.70;;;12.30;99.90;;;;;;5061836;28;20774;-67
2022/05/22 02:05:16;;;;;;;2.20;1.73;;;12.30;99.90;;;;;;5066756;28;20302;-67
2022/05/22 02:10:28;;;;;;;3.75;2.10;;;12.20;99.90;;;;;;5057221;28;20188;-67
2022/05/22 02:12:53;;;;;;;2.00;1.80;;;12.20;99.90;;;;;;5056419;28;20174;-66
2022/05/22 02:15:20;;;;;;;1.80;1.70;;;12.20;99.90;;;;;;5052501;28;20178;-67
2022/05/22 02:17:46;;;;;;;4.28;1.80;;;12.10;99.90;;;;;;5083672;28;20231;-67
2022/05/22 02:20:11;;;;;;;3.50;1.83;;;12.10;99.90;;;;;;5055664;28;20201;-67
2022/05/22 02:22:45;;;;;;;4.03;1.85;;;12.10;99.90;;;;;;5051996;28;20205;-67
2022/05/22 02:25:19;;;;;;;2.10;1.77;;;12.10;99.90;;;;;;5056758;28;20174;-67
2022/05/22 02:27:45;;;;;;;3.00;1.83;;;12.00;99.90;;;;;;5051611;28;20230;-67
2022/05/22 02:30:14;;;;;;;2.80;2.00;;;12.00;99.90;;;;;;5059623;28;20169;-67
2022/05/22 02:32:40;;;;;;;2.83;1.90;;;12.00;99.90;;;;;;5047239;28;20181;-67
2022/05/22 02:35:08;;;;;;;3.13;1.70;;;11.90;99.90;;;;;;5067656;28;20246;-67
2022/05/22 02:37:50;;;;;;;1.95;1.70;;;11.90;99.90;;;;;;5065758;28;20196;-67
2022/05/22 02:40:18;;;;;;;2.17;1.70;;;11.80;99.90;;;;;;5051729;28;20677;-67
2022/05/22 02:42:46;;;;;;;1.73;1.50;;;11.90;99.90;;;;;;5051938;28;20178;-67
2022/05/22 02:45:13;;;;;;;3.00;1.75;;;11.80;99.90;;;;;;5082108;28;20190;-67
2022/05/22 02:47:38;;;;;;;2.70;1.83;;;11.80;99.90;;;;;;5070209;28;20594;-67
2022/05/22 02:50:05;;;;;;;3.65;2.03;;;11.80;99.90;;;;;;5052427;28;20209;-67
2022/05/22 02:52:31;;;;;;;2.25;1.90;;;11.80;99.90;;;;;;5052795;28;20215;-67
2022/05/22 02:54:56;;;;;;;2.13;1.70;;;11.90;99.90;;;;;;5059749;28;20184;-67
2022/05/22 02:57:22;;;;;;;2.05;1.83;;;11.90;99.90;;;;;;5052279;28;20170;-67
2022/05/22 02:59:53;;;;;;;3.17;1.70;;;11.90;99.90;;;;;;5066734;28;20660;-67
2022/05/22 03:02:19;;;;;;;2.20;1.73;;;11.90;99.90;;;;;;5072439;28;20177;-67
2022/05/22 03:04:45;;;;;;;2.05;1.85;;;11.80;99.90;;;;;;5066224;28;20640;-66
2022/05/22 03:07:12;;;;;;;2.60;1.80;;;11.80;99.90;;;;;;5052100;28;20196;-67
2022/05/22 03:09:41;;;;;;;2.72;1.83;;;11.70;99.90;;;;;;5071733;28;20180;-66
2022/05/22 03:12:12;;;;;;;2.75;1.90;;;11.70;99.90;;;;;;5050484;28;20174;-67
2022/05/22 03:14:44;;;;;;;2.28;1.90;;;11.70;99.90;;;;;;5068116;28;20177;-66
2022/05/22 03:17:10;;;;;;;2.00;1.90;;;11.70;99.90;;;;;;5068550;28;20258;-67
2022/05/22 03:19:36;;;;;;;2.55;2.03;;;11.70;99.90;;;;;;5071342;28;20209;-67
2022/05/22 03:22:03;;;;;;;1.95;1.75;;;11.70;99.90;;;;;;5056671;28;20264;-66
2022/05/22 03:24:28;;;;;;;3.47;2.00;;;11.70;99.90;;;;;;5063829;28;20539;-67
2022/05/22 03:26:54;;;;;;;2.85;2.00;;;11.70;99.90;;;;;;5062587;28;20189;-66
2022/05/22 03:29:19;;;;;;;2.88;1.85;;;11.60;99.90;;;;;;5063566;28;20185;-66
2022/05/22 03:31:45;;;;;;;2.00;1.80;;;11.60;99.90;;;;;;5066025;28;20276;-67
2022/05/22 03:34:10;;;;;;;2.03;1.75;;;11.60;99.90;;;;;;5055469;28;20187;-67
2022/05/22 03:36:39;;;;;;;1.75;1.65;;;11.60;99.90;;;;;;5067411;28;20185;-67
2022/05/22 03:39:05;;;;;;;4.13;1.67;;;11.60;99.90;;;;;;5050577;28;20204;-66
2022/05/22 03:41:31;;;;;;;2.65;1.73;;;11.60;99.90;;;;;;5055742;28;20256;-67
2022/05/22 03:43:56;;;;;;;2.67;1.55;;;11.60;99.90;;;;;;5054973;28;20188;-66
2022/05/22 03:46:22;;;;;;;1.65;1.55;;;11.60;99.90;;;;;;5058042;28;20181;-65
2022/05/22 03:48:47;;;;;;;3.33;1.83;;;11.60;99.90;;;;;;5054409;28;20181;-66
2022/05/22 03:51:13;;;;;;;2.42;1.80;;;11.70;99.90;;;;;;5073768;28;20177;-66
2022/05/22 03:53:39;;;;;;;2.38;1.63;;;11.70;99.90;;;;;;5058946;28;20179;-66
2022/05/22 03:56:13;;;;;;;4.82;1.83;;;11.80;99.90;;;;;;5066192;28;20682;-66
2022/05/22 03:58:38;;;;;;;3.15;1.80;;;11.80;99.90;;;;;;5054412;28;20181;-67
2022/05/22 04:01:06;;;;;;;2.47;1.77;;;11.90;99.90;;;;;;5073101;28;20704;-66
2022/05/22 04:03:32;;;;;;;2.67;1.70;;;12.00;99.90;;;;;;5059655;28;20186;-66
2022/05/22 04:05:57;;;;;;;3.17;2.30;;;12.10;99.90;;;;;;5064705;28;20565;-65
2022/05/22 04:08:23;;;;;;;2.85;2.50;;;12.10;99.90;;;;;;5054401;28;20186;-67
2022/05/22 04:10:48;;;;;;;4.60;2.67;;;12.20;99.90;;;;;;5056792;28;20223;-67
2022/05/22 04:13:14;;;;;;;2.72;2.35;;;12.20;99.90;;;;;;5054509;28;20640;-66
2022/05/22 04:15:39;;;;;;;4.25;3.03;;;12.30;99.90;;;;;;5063148;28;20184;-67
2022/05/22 04:18:05;;;;;;;2.95;2.40;;;12.30;99.90;;;;;;5055287;28;20218;-66
2022/05/22 04:20:31;;;;;;;4.00;2.67;;;12.40;99.90;;;;;;5070682;28;20291;-67
2022/05/22 04:25:58;;;;;;;5.88;2.60;;;12.50;99.90;;;;;;5063695;28;20208;-67
2022/05/22 04:28:25;;;;;;;3.53;2.70;;;12.70;99.90;;;;;;5053017;28;20632;-67
2022/05/22 04:30:51;;;;;;;3.33;2.40;;;12.80;99.90;;;;;;5066539;28;20192;-67
2022/05/22 04:33:17;;;;;;;3.35;2.65;;;13.10;99.90;;;;;;5053821;28;20300;-67
2022/05/22 04:35:43;;;;;;;3.03;2.50;;;13.50;99.90;;;;;;5057061;28;20273;-67
2022/05/22 04:38:10;;;;;;;4.10;2.33;;;13.90;99.90;;;;;;5053135;28;20197;-67
2022/05/22 04:40:36;;;;;;;3.72;2.65;;;14.10;99.90;;;;;;5055003;28;20217;-68
2022/05/22 04:43:02;;;;;;;4.18;2.42;;;14.50;99.90;;;;;;5066498;28;20204;-67
2022/05/22 04:45:28;;;;;;;2.60;2.38;;;14.90;99.90;;;;;;5071698;28;20200;-67
2022/05/22 04:47:53;;;;;;;3.60;2.20;;;15.20;99.90;;;;;;5067613;28;20177;-67
2022/05/22 04:50:19;;;;;;;5.45;2.13;;;15.30;99.90;;;;;;5069167;28;20238;-67
2022/05/22 04:52:44;;;;;;;2.50;2.30;;;15.30;99.90;;;;;;5056018;28;20181;-68
2022/05/22 04:55:10;;;;;;;3.17;2.30;;;15.40;99.90;;;;;;5072752;28;20533;-67
2022/05/22 04:57:36;;;;;;;4.00;2.25;;;15.40;99.90;;;;;;5063418;28;20651;-67
2022/05/22 05:00:05;;;;;;;2.80;2.20;;;15.40;99.90;;;;;;5063115;28;20234;-67
2022/05/22 05:02:31;;;;;;;3.08;2.10;;;15.40;99.90;;;;;;5067898;28;20258;-67
2022/05/22 05:04:57;;;;;;;6.05;2.38;;;15.50;99.90;;;;;;5062871;28;20747;-67
2022/05/22 05:07:23;;;;;;;4.25;2.15;;;15.60;99.90;;;;;;5066189;28;20181;-68
2022/05/22 05:09:49;;;;;;;3.28;2.40;;;16.00;99.90;;;;;;5059342;28;20699;-67
2022/05/22 05:12:16;;;;;;;3.38;2.03;;;16.50;99.90;;;;;;5053223;28;20246;-67
2022/05/22 05:14:42;;;;;;;2.55;2.15;;;16.90;99.90;;;;;;5064251;28;20182;-67
2022/05/22 05:17:10;;;;;;;2.60;2.20;;;17.20;99.90;;;;;;5053546;28;20574;-68
2022/05/22 05:19:35;;;;;;;2.47;2.28;;;17.40;99.90;;;;;;5061479;28;20207;-67
2022/05/22 05:22:01;;;;;;;2.92;2.10;;;17.60;99.90;;;;;;5052922;28;20189;-67
2022/05/22 05:24:26;;;;;;;3.45;2.47;;;17.90;99.90;;;;;;5064816;28;20189;-67
2022/05/22 05:26:54;;;;;;;4.25;2.40;;;18.40;99.90;;;;;;5067277;28;20200;-67
2022/05/22 05:29:20;;;;;;;3.42;2.17;;;19.00;99.90;;;;;;5063984;28;20652;-66
2022/05/22 05:31:45;;;;;;;2.05;1.90;;;19.50;99.90;;;;;;5057436;28;20223;-71
2022/05/22 05:34:11;;;;;;;4.78;2.50;;;20.00;99.10;;;;;;5067408;28;20169;-71
2022/05/22 05:36:37;;;;;;;3.03;2.03;;;20.50;98.40;;;;;;5056154;28;20186;-67
2022/05/22 05:39:03;;;;;;;2.20;1.92;;;21.10;97.50;;;;;;5052776;28;20185;-69
2022/05/22 05:41:28;;;;;;;2.30;2.10;;;21.60;96.20;;;;;;5061076;28;20221;-64
2022/05/22 05:43:54;;;;;;;2.60;2.40;;;22.10;94.90;;;;;;5052649;28;20528;-65
2022/05/22 05:46:19;;;;;;;3.00;2.00;;;22.50;93.70;;;;;;5059189;28;20189;-66
2022/05/22 05:48:45;;;;;;;2.08;1.98;;;23.10;92.80;;;;;;5053257;28;20185;-71
2022/05/22 05:51:13;;;;;;;2.65;2.05;;;23.40;91.50;;;;;;5056952;28;20185;-66
2022/05/22 05:53:38;;;;;;;2.53;1.98;;;23.90;90.70;;;;;;5054431;28;20644;-66
2022/05/22 05:56:05;;;;;;;3.72;2.05;;;24.20;89.00;;;;;;5055169;28;20223;-66
2022/05/22 05:58:31;;;;;;;2.15;1.80;;;24.40;87.50;;;;;;5072447;28;20237;-66
2022/05/22 06:00:56;;;;;;;2.85;2.00;;;24.80;84.50;;;;;;5072066;28;20311;-75
2022/05/22 06:03:22;;;;;;;2.10;1.90;;;25.00;83.30;;;;;;5062261;28;20192;-67
2022/05/22 06:05:48;;;;;;;3.17;2.25;;;25.30;82.00;;;;;;5072042;28;20199;-66
2022/05/22 06:08:14;;;;;;;3.42;2.67;;;25.90;79.80;;;;;;5063396;28;20535;-66
2022/05/22 06:10:40;;;;;;;2.13;2.03;;;26.60;77.50;;;;;;5066302;28;20272;-67
2022/05/22 06:13:08;;;;;;;2.38;2.17;;;27.20;73.40;;;;;;5055322;28;20530;-71
2022/05/22 06:15:34;;;;;;;4.22;1.90;;;27.60;71.70;;;;;;5067636;28;20181;-70
2022/05/22 06:17:59;;;;;;;2.22;1.77;;;28.00;69.50;;;;;;5071177;28;20227;-70
2022/05/22 06:20:25;;;;;;;2.65;1.80;;;28.40;67.00;;;;;;5070474;28;20216;-70
2022/05/22 06:22:50;;;;;;;2.83;2.10;;;28.70;65.50;;;;;;5065458;28;20187;-70
2022/05/22 06:25:17;;;;;;;2.40;2.13;;;28.90;63.60;;;;;;5072107;28;20264;-70
2022/05/22 06:27:44;;;;;;;4.70;1.85;;;29.10;62.70;;;;;;5052854;28;20256;-70
2022/05/22 06:30:12;;;;;;;2.22;2.10;;;29.40;61.60;;;;;;5051900;28;20177;-70
2022/05/22 06:32:40;;;;;;;2.80;2.08;;;29.60;60.90;;;;;;5052150;28;20178;-70
2022/05/22 06:35:11;;;;;;;2.22;2.03;;;29.90;60.20;;;;;;5051720;28;20239;-70
2022/05/22 06:37:36;;;;;;;2.08;1.83;;;30.10;59.50;;;;;;5051908;28;20529;-70
2022/05/22 06:40:03;;;;;;;3.22;2.00;;;30.20;58.50;;;;;;5051761;28;20246;-70
2022/05/22 06:42:32;;;;;;;2.13;1.85;;;30.40;58.30;;;;;;5050527;28;20506;-71
2022/05/22 06:45:07;;;;;;;2.70;2.22;;;30.50;58.20;;;;;;5051790;28;20173;-70
2022/05/22 06:47:34;;;;;;;2.60;2.00;;;30.60;58.10;;;;;;5051731;28;20219;-70
2022/05/22 06:50:04;;;;;;;3.17;2.00;;;30.50;57.50;;;;;;5051645;28;20690;-70
2022/05/22 06:52:30;;;;;;;2.83;2.10;;;30.60;57.30;;;;;;5051377;28;20182;-70
2022/05/22 06:54:56;;;;;;;2.28;2.08;;;30.50;57.00;;;;;;5051422;28;20170;-69
2022/05/22 06:57:21;;;;;;;2.55;2.13;;;30.30;57.30;;;;;;5051288;28;20323;-70
2022/05/22 06:59:48;;;;;;;3.67;2.13;;;30.20;57.70;;;;;;5052518;28;20346;-70
2022/05/22 07:02:15;;;;;;;2.58;2.38;;;30.20;57.60;;;;;;5055436;28;20197;-70
2022/05/22 07:04:41;;;;;;;3.22;2.20;;;30.20;57.70;;;;;;5055494;28;20181;-70
2022/05/22 07:07:07;;;;;;;5.13;2.33;;;30.40;57.40;;;;;;5055310;28;20197;-70
2022/05/22 07:09:33;;;;;;;3.28;2.15;;;30.60;57.10;;;;;;5055484;28;20177;-70
2022/05/22 07:11:59;;;;;;;2.50;2.17;;;30.80;56.20;;;;;;5055405;28;20552;-70
2022/05/22 07:14:26;;;;;;;2.33;2.10;;;31.00;56.30;;;;;;5055491;28;20174;-70
2022/05/22 07:16:51;;;;;;;3.38;2.25;;;31.10;55.60;;;;;;5055186;28;20217;-70
2022/05/22 07:19:18;;;;;;;2.90;2.53;;;31.40;54.80;;;;;;5055238;28;20714;-70
2022/05/22 07:21:45;;;;;;;2.25;1.98;;;31.50;54.20;;;;;;5055160;28;20248;-70
2022/05/22 07:24:10;;;;;;;4.13;2.15;;;31.40;54.10;;;;;;5055022;28;20640;-70
2022/05/22 07:26:36;;;;;;;4.28;1.92;;;31.30;54.40;;;;;;5055097;28;20216;-70
2022/05/22 07:29:02;;;;;;;2.20;2.00;;;31.30;54.30;;;;;;5055091;28;20173;-70
2022/05/22 07:31:29;;;;;;;2.47;1.88;;;31.30;54.10;;;;;;5055018;28;20518;-70
2022/05/22 07:33:55;;;;;;;3.60;2.17;;;31.30;54.00;;;;;;5055095;28;20711;-70
2022/05/22 07:36:21;;;;;;;2.60;1.95;;;31.50;54.10;;;;;;5055101;28;20223;-70
2022/05/22 07:38:46;;;;;;;2.30;1.85;;;31.70;53.40;;;;;;5055046;28;20579;-70
2022/05/22 07:41:13;;;;;;;3.15;2.13;;;31.70;53.00;;;;;;5054902;28;20228;-70
2022/05/22 07:43:39;;;;;;;2.85;2.15;;;31.80;52.80;;;;;;5055083;28;20243;-70
2022/05/22 07:46:06;;;;;;;2.33;2.00;;;31.90;52.50;;;;;;5054899;28;20182;-70
2022/05/22 07:48:31;;;;;;;3.55;2.10;;;32.10;51.50;;;;;;5054828;28;20256;-70
2022/05/22 07:50:59;;;;;;;2.58;2.20;;;32.20;51.90;;;;;;5054923;28;20684;-69
2022/05/22 07:53:26;;;;;;;3.30;2.42;;;32.30;52.00;;;;;;5054830;28;20225;-70
2022/05/22 07:55:52;;;;;;;2.20;2.00;;;32.40;51.60;;;;;;5054896;28;20188;-70
2022/05/22 07:58:19;;;;;;;3.25;2.10;;;32.60;51.20;;;;;;5054832;28;20173;-70
2022/05/22 08:00:45;;;;;;;2.20;1.90;;;32.70;50.80;;;;;;5054442;28;20217;-70
2022/05/22 08:03:13;;;;;;;3.60;1.80;;;32.80;50.10;;;;;;5054616;28;20177;-70
2022/05/22 08:05:38;;;;;;;3.35;2.30;;;32.70;50.20;;;;;;5054677;28;20234;-70
2022/05/22 08:08:04;;;;;;;1.98;1.85;;;32.60;50.40;;;;;;5054583;28;20189;-70
2022/05/22 08:10:30;;;;;;;4.63;2.80;;;32.60;50.30;;;;;;5054326;28;20264;-69
2022/05/22 08:12:55;;;;;;;2.67;1.75;;;32.60;50.20;;;;;;5054615;28;20252;-70
2022/05/22 08:15:23;;;;;;;2.28;1.65;;;32.60;50.70;;;;;;5054467;28;20178;-70
2022/05/22 08:17:49;;;;;;;4.25;2.20;;;32.70;50.50;;;;;;5054179;28;20320;-71
2022/05/22 08:20:18;;;;;;;3.75;2.20;;;32.80;50.40;;;;;;5054296;28;20303;-70
2022/05/22 08:22:44;;;;;;;3.03;1.80;;;32.90;49.70;;;;;;5049291;28;20180;-70
2022/05/22 08:25:13;;;;;;;3.85;2.00;;;32.70;49.40;;;;;;5053971;28;20239;-70
2022/05/22 08:27:39;;;;;;;2.97;1.92;;;32.50;50.50;;;;;;5054219;28;20183;-70
2022/05/22 08:30:06;;;;;;;3.05;2.00;;;32.60;50.80;;;;;;5054088;28;20177;-70
2022/05/22 08:32:31;;;;;;;2.22;1.77;;;32.70;50.00;;;;;;5054110;28;20667;-71
2022/05/22 08:34:57;;;;;;;3.28;1.90;;;32.80;50.30;;;;;;5054179;28;20177;-70
2022/05/22 08:37:23;;;;;;;2.05;1.85;;;32.90;49.90;;;;;;5054016;28;20691;-70
2022/05/22 08:39:49;;;;;;;1.83;1.70;;;33.00;49.50;;;;;;5053833;28;20202;-70
2022/05/22 08:42:23;;;;;;;2.20;1.90;;;33.10;49.20;;;;;;5053053;28;20220;-69
2022/05/22 08:44:54;;;;;;;2.10;1.73;;;33.10;49.60;;;;;;5053910;28;20177;-70
2022/05/22 08:47:38;;;;;;;2.85;1.70;;;33.00;49.10;;;;;;5053818;28;20586;-69
2022/05/22 08:50:09;;;;;;;2.08;1.90;;;32.60;48.90;;;;;;5033843;28;20248;-69
2022/05/22 08:52:55;;;;;;;2.08;1.60;;;32.30;49.20;;;;;;5033968;28;20177;-70
2022/05/22 08:58:55;;;;;;;2.53;1.60;;;31.70;50.20;;;;;;5033725;28;20189;-71
2022/05/22 09:01:06;;;;;;;2.97;1.75;;;31.50;50.00;;;;;;5033805;28;20248;-69
2022/05/22 09:03:39;;;;;;;2.03;1.85;;;31.60;50.40;;;;;;5033832;28;20228;-70
2022/05/22 09:06:06;;;;;;;2.17;1.50;;;31.70;49.60;;;;;;5033656;28;20186;-70
2022/05/22 09:08:38;;;;;;;1.95;1.40;;;31.80;48.90;;;;;;5033443;28;20181;-69
2022/05/22 09:11:18;;;;;;;2.53;1.60;;;31.60;48.90;;;;;;5033217;28;20216;-69
2022/05/22 09:13:56;;;;;;;2.83;1.52;;;31.00;49.00;;;;;;5033393;28;20170;-69
2022/05/22 09:16:43;;;;;;;1.30;1.20;;;30.80;49.60;;;;;;5033042;28;20178;-70
2022/05/22 09:19:16;;;;;;;1.92;1.23;;;30.70;49.30;;;;;;5033262;28;20197;-69
2022/05/22 09:21:44;;;;;;;2.08;1.10;;;30.60;48.80;;;;;;5038214;28;20210;-70
2022/05/22 09:24:25;;;;;;;2.70;1.20;;;30.80;49.00;;;;;;5032773;28;20543;-70
2022/05/22 09:27:05;;;;;;;2.25;1.60;;;30.80;47.50;;;;;;5038651;28;20165;-70
2022/05/22 09:29:40;;;;;;;2.03;1.40;;;30.80;47.00;;;;;;5052585;28;20192;-69
2022/05/22 09:32:44;;;;;;;1.20;1.10;;;30.60;47.20;;;;;;5052340;28;20222;-70
2022/05/22 09:35:12;;;;;;;4.13;0.65;;;30.60;46.10;;;;;;5051976;28;20211;-69
2022/05/22 09:37:51;;;;;;;1.77;1.00;;;30.50;43.40;;;;;;5052050;28;20201;-70
2022/05/22 09:40:33;;;;;;;0.98;0.85;;;30.70;43.80;;;;;;5052039;28;20205;-70
2022/05/22 09:43:25;;;;;;;1.52;1.08;;;30.80;45.40;;;;;;5052601;28;20573;-68
2022/05/22 09:46:19;;;;;;;2.78;0.98;;;30.60;45.30;;;;;;5052653;28;20184;-69
2022/05/22 09:49:11;;;;;;;3.13;1.10;;;29.80;45.50;;;;;;5052578;28;20191;-70
2022/05/22 09:51:52;;;;;;;3.03;0.90;;;29.80;46.60;;;;;;5036528;28;20185;-70
2022/05/22 09:55:02;;;;;;;2.03;1.20;;;30.10;46.90;;;;;;5052441;28;20222;-70
2022/05/22 09:57:47;;;;;;;1.27;1.15;;;30.30;44.00;;;;;;5052275;28;20173;-72
2022/05/22 10:00:18;;;;;;;2.65;1.40;;;30.50;45.60;;;;;;5052382;28;20296;-70
2022/05/22 10:02:46;;;;;;;1.13;1.00;;;30.50;44.60;;;;;;5052674;28;20515;-71
2022/05/22 10:05:44;;;;;;;1.25;1.15;;;30.40;44.50;;;;;;5052390;28;20637;-70
2022/05/22 10:08:18;;;;;;;3.42;1.13;;;30.30;45.80;;;;;;5052311;28;20640;-70
2022/05/22 10:10:58;;;;;;;1.13;1.02;;;30.40;45.70;;;;;;5052412;28;20181;-70
2022/05/22 10:13:53;;;;;;;1.00;1.00;;;30.60;45.60;;;;;;5052367;28;20196;-70
2022/05/22 10:16:37;;;;;;;1.80;0.90;;;30.70;45.70;;;;;;5052166;28;20189;-70
2022/05/22 10:19:10;;;;;;;1.33;1.10;;;30.60;44.60;;;;;;5052272;28;20182;-70
2022/05/22 10:22:00;;;;;;;1.95;0.90;;;30.50;45.30;;;;;;5046467;28;20227;-70
2022/05/22 10:24:55;;;;;;;1.00;0.80;;;30.00;46.00;;;;;;5032125;28;20178;-71
2022/05/22 10:27:38;;;;;;;2.00;1.13;;;29.60;45.90;;;;;;5040782;28;20196;-70
2022/05/22 10:30:46;;;;;;;1.10;1.00;;;29.80;46.50;;;;;;5052032;28;20181;-70
2022/05/22 10:33:23;;;;;;;3.03;1.40;;;29.70;46.50;;;;;;5049672;28;20200;-70
2022/05/22 10:36:20;;;;;;;2.60;1.02;;;29.70;46.90;;;;;;5051375;28;20177;-70
2022/05/22 10:38:54;;;;;;;4.88;1.52;;;30.00;47.30;;;;;;5043428;28;20537;-70
2022/05/22 10:44:40;;;;;;;1.17;1.08;;;30.40;45.90;;;;;;5052298;28;20238;-70
2022/05/22 10:47:06;;;;;;;1.67;1.20;;;30.40;45.10;;;;;;5051926;28;20579;-70
2022/05/22 10:49:50;;;;;;;1.92;1.15;;;30.30;45.20;;;;;;5051962;28;20264;-70
2022/05/22 10:52:31;;;;;;;1.33;0.90;;;30.10;47.20;;;;;;5051762;28;20173;-70
2022/05/22 10:54:57;;;;;;;3.05;1.30;;;30.30;47.00;;;;;;5051980;28;20177;-69
2022/05/22 10:57:32;;;;;;;2.20;1.80;;;30.50;47.90;;;;;;5051552;28;20633;-70
2022/05/22 11:00:09;;;;;;;2.15;1.45;;;30.70;46.70;;;;;;5051735;28;20202;-67
2022/05/22 11:02:34;;;;;;;5.05;1.10;;;30.90;45.50;;;;;;5051794;28;20204;-69
2022/05/22 11:05:00;;;;;;;2.60;0.98;;;31.00;44.90;;;;;;5051741;28;20648;-69
2022/05/22 11:07:45;;;;;;;1.63;1.10;;;30.90;45.20;;;;;;5051788;28;20185;-69
2022/05/22 11:10:16;;;;;;;1.48;1.38;;;31.00;44.90;;;;;;5051659;28;20545;-69
2022/05/22 11:12:42;;;;;;;3.53;1.48;;;31.10;45.60;;;;;;5051680;28;20170;-69
2022/05/22 11:15:08;;;;;;;1.42;0.85;;;31.30;43.20;;;;;;5051543;28;20224;-69
2022/05/22 11:17:34;;;;;;;2.17;1.13;;;31.30;43.00;;;;;;5051498;28;20256;-70
2022/05/22 11:20:11;;;;;;;1.30;1.10;;;31.10;43.60;;;;;;5051613;28;20291;-68
2022/05/22 11:22:59;;;;;;;1.42;0.98;;;31.00;42.10;;;;;;5037411;28;20641;-68
2022/05/22 11:25:44;;;;;;;1.83;0.90;;;30.90;42.80;;;;;;5031835;28;20178;-69
2022/05/22 11:28:43;;;;;;;2.83;1.10;;;31.00;41.10;;;;;;5039985;28;20280;-69
2022/05/22 11:31:15;;;;;;;1.00;0.55;;;30.90;41.70;;;;;;5051575;28;20173;-69
2022/05/22 11:34:19;;;;;;;1.48;0.90;;;30.70;41.20;;;;;;5051688;28;20265;-69
2022/05/22 11:37:09;;;;;;;0.90;0.90;;;30.70;42.70;;;;;;5030070;28;20204;-69
2022/05/22 11:39:57;;;;;;;1.13;0.82;;;30.80;42.50;;;;;;5051450;28;20190;-69
2022/05/22 11:42:34;;;;;;;2.15;0.98;;;30.80;42.70;;;;;;5051499;28;20182;-69
2022/05/22 11:45:09;;;;;;;2.55;1.20;;;30.60;42.30;;;;;;5051483;28;20173;-67
2022/05/22 11:47:58;;;;;;;1.15;0.95;;;30.60;42.90;;;;;;5055146;28;20177;-69
2022/05/22 11:50:38;;;;;;;3.20;1.42;;;30.80;41.80;;;;;;5055134;28;20196;-69
2022/05/22 11:53:43;;;;;;;2.13;1.30;;;31.00;41.70;;;;;;5055113;28;20235;-69
2022/05/22 11:56:27;;;;;;;1.85;0.90;;;31.10;41.50;;;;;;5054833;28;20181;-69
2022/05/22 11:59:07;;;;;;;1.30;1.00;;;31.40;42.60;;;;;;5055097;28;20207;-69
2022/05/22 12:01:45;;;;;;;2.22;1.40;;;31.30;42.60;;;;;;5054837;28;20224;-68
2022/05/22 12:04:45;;;;;;;1.35;1.00;;;31.30;42.70;;;;;;5054853;28;20181;-68
2022/05/22 12:07:32;;;;;;;2.70;0.90;;;31.00;42.20;;;;;;5054736;28;20169;-68
2022/05/22 12:10:16;;;;;;;0.75;0.73;;;30.70;43.20;;;;;;5054787;28;20177;-68
2022/05/22 12:12:52;;;;;;;1.20;1.00;;;30.10;43.20;;;;;;5054750;28;20207;-68
2022/05/22 12:15:53;;;;;;;2.30;1.08;;;29.80;43.70;;;;;;5054744;28;20192;-69
2022/05/22 12:18:47;;;;;;;0.77;0.77;;;29.90;42.50;;;;;;5054415;28;20217;-69
2022/05/22 12:21:44;;;;;;;1.83;1.08;;;30.10;42.10;;;;;;5051738;28;20217;-69
2022/05/22 12:24:34;;;;;;;1.30;0.90;;;30.30;41.10;;;;;;5034422;28;20182;-68
2022/05/22 12:27:13;;;;;;;3.45;1.08;;;30.60;42.30;;;;;;5041456;28;20672;-68
2022/05/22 12:29:57;;;;;;;1.15;0.90;;;30.70;40.40;;;;;;5054489;28;20663;-68
2022/05/22 12:32:26;;;;;;;1.33;1.00;;;30.60;41.00;;;;;;5054295;28;20204;-69
2022/05/22 12:34:55;;;;;;;1.02;0.82;;;30.70;40.80;;;;;;5054165;28;20174;-69
2022/05/22 12:37:38;;;;;;;1.83;0.90;;;30.70;40.40;;;;;;5054420;28;20184;-68
2022/05/22 12:40:46;;;;;;;0.75;0.75;;;30.60;42.10;;;;;;5054157;28;20664;-68
2022/05/22 12:43:16;;;;;;;1.00;0.90;;;30.50;43.50;;;;;;5051923;28;20280;-69
2022/05/22 12:45:42;;;;;;;0.95;0.95;;;30.70;43.60;;;;;;5054197;28;20227;-69
2022/05/22 12:48:26;;;;;;;4.25;1.20;;;30.70;44.10;;;;;;5053910;28;20539;-69
2022/05/22 12:51:12;;;;;;;1.60;1.20;;;30.80;43.10;;;;;;5054136;28;20169;-69
2022/05/22 12:53:41;;;;;;;1.52;1.05;;;30.80;44.30;;;;;;5054072;28;20327;-68
2022/05/22 12:56:37;;;;;;;0.93;0.85;;;30.20;43.80;;;;;;5053717;28;20545;-69
2022/05/22 12:59:16;;;;;;;2.20;1.00;;;29.70;45.40;;;;;;5053421;28;20182;-69
2022/05/22 13:01:45;;;;;;;1.35;0.88;;;29.70;45.00;;;;;;5053857;28;20208;-69
2022/05/22 13:04:19;;;;;;;1.55;0.73;;;29.70;44.80;;;;;;5053638;28;20181;-69
2022/05/22 13:06:50;;;;;;;1.02;0.93;;;29.70;44.80;;;;;;5053834;28;20180;-69
2022/05/22 13:09:31;;;;;;;2.25;1.08;;;29.60;45.30;;;;;;5053592;28;20265;-69
2022/05/22 13:12:00;;;;;;;1.20;1.10;;;29.80;44.70;;;;;;5053725;28;20173;-69
2022/05/22 13:14:34;;;;;;;0.90;0.85;;;30.10;44.30;;;;;;5053507;28;20280;-69
2022/05/22 13:17:00;;;;;;;1.65;0.82;;;30.10;42.60;;;;;;5053439;28;20229;-68
2022/05/22 13:19:29;;;;;;;1.38;0.70;;;29.90;42.90;;;;;;5053423;28;20181;-68
2022/05/22 13:21:56;;;;;;;2.22;1.27;;;29.60;43.40;;;;;;5045022;28;20735;-69